sensor_id;sensor_type;location;lat;lon;timestamp;pressure;altitude;pressure_sealevel;temperature;humidity
55546;BME280;44768;50.298;127.520;2022-07-12T00:02:15;99249.34;;;38.15;26.71
55546;BME280;44768;50.298;127.520;2022-07-12T00:07:17;99260.28;;;37.45;27.48
55546;BME280;44768;50.298;127.520;2022-07-12T00:12:19;99251.97;;;37.55;27.57
55546;BME280;44768;50.298;127.520;2022-07-12T00:17:20;99232.88;;;37.75;27.23
55546;BME280;44768;50.298;127.520;2022-07-12T00:22:22;99237.88;;;37.13;27.84
55546;BME280;44768;50.298;127.520;2022-07-12T00:27:25;99248.66;;;37.31;27.81
55546;BME280;44768;50.298;127.520;2022-07-12T00:32:27;99252.72;;;37.13;27.75
55546;BME280;44768;50.298;127.520;2022-07-12T00:37:28;99247.69;;;36.92;27.90
55546;BME280;44768;50.298;127.520;2022-07-12T00:42:30;99231.34;;;36.74;28.68
55546;BME280;44768;50.298;127.520;2022-07-12T00:47:37;99225.72;;;36.42;28.05
55546;BME280;44768;50.298;127.520;2022-07-12T00:52:43;99226.13;;;36.08;28.76
55546;BME280;44768;50.298;127.520;2022-07-12T00:57:46;99226.06;;;36.11;29.15
55546;BME280;44768;50.298;127.520;2022-07-12T01:02:52;99210.56;;;35.87;29.34
55546;BME280;44768;50.298;127.520;2022-07-12T01:07:56;99230.19;;;35.70;29.72
55546;BME280;44768;50.298;127.520;2022-07-12T01:12:58;99211.09;;;35.26;30.25
55546;BME280;44768;50.298;127.520;2022-07-12T01:18:00;99219.59;;;34.79;30.48
55546;BME280;44768;50.298;127.520;2022-07-12T01:23:03;99224.75;;;34.34;31.62
55546;BME280;44768;50.298;127.520;2022-07-12T01:28:05;99222.44;;;34.29;31.86
55546;BME280;44768;50.298;127.520;2022-07-12T01:33:06;99231.75;;;34.49;31.51
55546;BME280;44768;50.298;127.520;2022-07-12T01:38:08;99237.03;;;34.67;31.22
55546;BME280;44768;50.298;127.520;2022-07-12T01:43:10;99217.78;;;34.69;31.14
55546;BME280;44768;50.298;127.520;2022-07-12T01:48:12;99239.31;;;34.95;31.04
55546;BME280;44768;50.298;127.520;2022-07-12T01:53:14;99234.38;;;34.83;31.62
55546;BME280;44768;50.298;127.520;2022-07-12T01:58:17;99237.63;;;34.78;31.65
55546;BME280;44768;50.298;127.520;2022-07-12T02:03:19;99222.28;;;34.63;32.28
55546;BME280;44768;50.298;127.520;2022-07-12T02:08:21;99224.16;;;34.69;32.25
55546;BME280;44768;50.298;127.520;2022-07-12T02:13:23;99221.44;;;34.89;31.38
55546;BME280;44768;50.298;127.520;2022-07-12T02:18:44;99216.41;;;35.40;31.56
55546;BME280;44768;50.298;127.520;2022-07-12T02:23:46;99209.28;;;35.55;31.24
55546;BME280;44768;50.298;127.520;2022-07-12T02:28:47;99197.38;;;35.67;31.28
55546;BME280;44768;50.298;127.520;2022-07-12T02:33:49;99195.84;;;35.63;31.02
55546;BME280;44768;50.298;127.520;2022-07-12T02:38:50;99213.56;;;35.80;31.24
55546;BME280;44768;50.298;127.520;2022-07-12T02:43:52;99213.94;;;36.14;30.19
55546;BME280;44768;50.298;127.520;2022-07-12T02:48:54;99204.66;;;36.34;29.91
55546;BME280;44768;50.298;127.520;2022-07-12T02:53:55;99206.56;;;36.53;29.73
55546;BME280;44768;50.298;127.520;2022-07-12T02:58:57;99202.84;;;36.72;29.57
55546;BME280;44768;50.298;127.520;2022-07-12T03:03:59;99183.38;;;36.16;30.25
55546;BME280;44768;50.298;127.520;2022-07-12T03:09:01;99167.91;;;36.24;30.66
55546;BME280;44768;50.298;127.520;2022-07-12T03:14:03;99169.69;;;36.18;30.70
55546;BME280;44768;50.298;127.520;2022-07-12T03:19:05;99158.81;;;36.04;31.20
55546;BME280;44768;50.298;127.520;2022-07-12T03:24:07;99159.94;;;36.39;30.46
55546;BME280;44768;50.298;127.520;2022-07-12T03:29:08;99147.88;;;36.55;29.66
55546;BME280;44768;50.298;127.520;2022-07-12T03:34:10;99136.59;;;36.26;29.53
55546;BME280;44768;50.298;127.520;2022-07-12T03:39:11;99137.13;;;36.37;28.48
55546;BME280;44768;50.298;127.520;2022-07-12T03:44:13;99129.25;;;36.61;29.33
55546;BME280;44768;50.298;127.520;2022-07-12T03:49:15;99120.53;;;36.26;29.32
55546;BME280;44768;50.298;127.520;2022-07-12T03:54:16;99105.97;;;35.66;29.91
55546;BME280;44768;50.298;127.520;2022-07-12T03:59:18;99112.72;;;35.53;30.56
55546;BME280;44768;50.298;127.520;2022-07-12T04:04:20;99106.38;;;35.12;30.86
55546;BME280;44768;50.298;127.520;2022-07-12T04:09:22;99110.09;;;35.26;30.74
55546;BME280;44768;50.298;127.520;2022-07-12T04:14:23;99109.31;;;35.25;30.29
55546;BME280;44768;50.298;127.520;2022-07-12T04:19:25;99108.22;;;35.39;30.30
55546;BME280;44768;50.298;127.520;2022-07-12T04:24:32;99106.06;;;35.27;30.63
55546;BME280;44768;50.298;127.520;2022-07-12T04:29:34;99108.06;;;35.46;30.84
55546;BME280;44768;50.298;127.520;2022-07-12T04:34:35;99102.63;;;35.71;30.88
55546;BME280;44768;50.298;127.520;2022-07-12T04:39:37;99115.06;;;35.54;31.21
55546;BME280;44768;50.298;127.520;2022-07-12T04:44:38;99130.44;;;35.30;31.24
55546;BME280;44768;50.298;127.520;2022-07-12T04:49:40;99121.91;;;34.97;32.20
55546;BME280;44768;50.298;127.520;2022-07-12T04:54:42;99132.25;;;34.41;32.50
55546;BME280;44768;50.298;127.520;2022-07-12T04:59:44;99111.69;;;34.24;33.27
55546;BME280;44768;50.298;127.520;2022-07-12T05:04:46;99129.09;;;34.59;33.02
55546;BME280;44768;50.298;127.520;2022-07-12T05:09:48;99131.47;;;34.60;33.25
55546;BME280;44768;50.298;127.520;2022-07-12T05:14:49;99140.06;;;34.49;33.57
55546;BME280;44768;50.298;127.520;2022-07-12T05:19:51;99126.59;;;34.64;33.29
55546;BME280;44768;50.298;127.520;2022-07-12T05:24:53;99139.72;;;34.47;33.74
55546;BME280;44768;50.298;127.520;2022-07-12T05:29:54;99146.75;;;34.09;34.38
55546;BME280;44768;50.298;127.520;2022-07-12T05:34:57;99139.72;;;34.24;34.10
55546;BME280;44768;50.298;127.520;2022-07-12T05:39:59;99149.13;;;34.37;34.15
55546;BME280;44768;50.298;127.520;2022-07-12T05:45:00;99155.88;;;34.40;34.16
55546;BME280;44768;50.298;127.520;2022-07-12T05:50:04;99136.28;;;33.89;35.12
55546;BME280;44768;50.298;127.520;2022-07-12T05:55:06;99152.09;;;33.76;35.12
55546;BME280;44768;50.298;127.520;2022-07-12T06:00:09;99130.38;;;33.26;35.63
55546;BME280;44768;50.298;127.520;2022-07-12T06:05:11;99140.97;;;32.40;37.33
55546;BME280;44768;50.298;127.520;2022-07-12T06:10:13;99151.44;;;32.32;37.13
55546;BME280;44768;50.298;127.520;2022-07-12T06:15:15;99105.72;;;32.53;37.26
55546;BME280;44768;50.298;127.520;2022-07-12T06:20:17;99112.91;;;32.54;37.58
55546;BME280;44768;50.298;127.520;2022-07-12T06:25:18;99128.16;;;32.46;38.51
55546;BME280;44768;50.298;127.520;2022-07-12T06:30:21;99132.94;;;32.01;38.83
55546;BME280;44768;50.298;127.520;2022-07-12T06:35:23;99145.97;;;32.15;39.06
55546;BME280;44768;50.298;127.520;2022-07-12T06:40:24;99144.84;;;32.53;38.72
55546;BME280;44768;50.298;127.520;2022-07-12T06:45:26;99138.44;;;32.11;39.97
55546;BME280;44768;50.298;127.520;2022-07-12T06:50:28;99159.06;;;32.25;40.08
55546;BME280;44768;50.298;127.520;2022-07-12T06:55:30;99184.91;;;32.36;39.99
55546;BME280;44768;50.298;127.520;2022-07-12T07:00:32;99178.22;;;32.23;40.30
55546;BME280;44768;50.298;127.520;2022-07-12T07:05:35;99173.34;;;31.86;41.17
55546;BME280;44768;50.298;127.520;2022-07-12T07:10:39;99194.09;;;31.81;40.92
55546;BME280;44768;50.298;127.520;2022-07-12T07:15:40;99188.66;;;31.52;41.53
55546;BME280;44768;50.298;127.520;2022-07-12T07:20:42;99195.94;;;31.32;41.57
55546;BME280;44768;50.298;127.520;2022-07-12T07:25:46;99199.13;;;31.31;42.00
55546;BME280;44768;50.298;127.520;2022-07-12T07:30:48;99196.72;;;31.29;42.27
55546;BME280;44768;50.298;127.520;2022-07-12T07:35:55;99194.34;;;31.24;42.77
55546;BME280;44768;50.298;127.520;2022-07-12T07:40:57;99175.34;;;31.01;43.07
55546;BME280;44768;50.298;127.520;2022-07-12T07:45:58;99180.91;;;30.98;43.62
55546;BME280;44768;50.298;127.520;2022-07-12T07:51:01;99153.13;;;30.69;44.50
55546;BME280;44768;50.298;127.520;2022-07-12T07:56:02;99142.44;;;29.93;47.17
55546;BME280;44768;50.298;127.520;2022-07-12T08:01:04;99145.91;;;29.33;48.44
55546;BME280;44768;50.298;127.520;2022-07-12T08:06:06;99158.38;;;28.80;49.82
55546;BME280;44768;50.298;127.520;2022-07-12T08:11:09;99176.66;;;28.85;50.36
55546;BME280;44768;50.298;127.520;2022-07-12T08:16:12;99178.31;;;29.00;50.41
55546;BME280;44768;50.298;127.520;2022-07-12T08:21:13;99203.81;;;29.17;50.04
55546;BME280;44768;50.298;127.520;2022-07-12T08:26:19;99202.69;;;29.32;50.05
55546;BME280;44768;50.298;127.520;2022-07-12T08:31:22;99190.72;;;29.17;50.36
55546;BME280;44768;50.298;127.520;2022-07-12T08:36:24;99185.50;;;29.08;50.34
55546;BME280;44768;50.298;127.520;2022-07-12T08:41:25;99190.25;;;29.04;50.44
55546;BME280;44768;50.298;127.520;2022-07-12T08:46:26;99168.72;;;28.91;50.83
55546;BME280;44768;50.298;127.520;2022-07-12T08:51:29;99171.88;;;28.82;50.80
55546;BME280;44768;50.298;127.520;2022-07-12T08:56:42;99141.66;;;28.70;51.36
55546;BME280;44768;50.298;127.520;2022-07-12T09:01:52;99166.31;;;28.82;51.94
55546;BME280;44768;50.298;127.520;2022-07-12T09:06:54;99153.38;;;29.07;51.57
55546;BME280;44768;50.298;127.520;2022-07-12T09:11:56;99130.22;;;28.86;50.85
55546;BME280;44768;50.298;127.520;2022-07-12T09:17:03;99106.09;;;29.00;51.53
55546;BME280;44768;50.298;127.520;2022-07-12T09:22:14;99070.38;;;28.99;52.23
55546;BME280;44768;50.298;127.520;2022-07-12T09:27:24;99052.63;;;28.41;53.96
55546;BME280;44768;50.298;127.520;2022-07-12T09:32:26;99018.66;;;27.42;58.28
55546;BME280;44768;50.298;127.520;2022-07-12T09:37:46;99011.53;;;26.66;62.57
55546;BME280;44768;50.298;127.520;2022-07-12T09:42:48;98994.94;;;26.66;63.74
55546;BME280;44768;50.298;127.520;2022-07-12T09:47:51;99000.53;;;26.74;64.15
55546;BME280;44768;50.298;127.520;2022-07-12T09:52:54;99004.16;;;26.78;64.52
55546;BME280;44768;50.298;127.520;2022-07-12T09:58:01;99017.56;;;26.76;63.81
55546;BME280;44768;50.298;127.520;2022-07-12T10:03:04;99024.50;;;26.96;63.62
55546;BME280;44768;50.298;127.520;2022-07-12T10:08:09;99039.09;;;27.26;62.70
55546;BME280;44768;50.298;127.520;2022-07-12T10:13:11;99038.06;;;27.42;62.57
55546;BME280;44768;50.298;127.520;2022-07-12T10:18:20;99042.63;;;27.64;61.79
55546;BME280;44768;50.298;127.520;2022-07-12T10:23:29;99056.13;;;27.73;62.07
55546;BME280;44768;50.298;127.520;2022-07-12T10:29:03;99041.25;;;27.92;61.28
55546;BME280;44768;50.298;127.520;2022-07-12T10:39:12;99012.78;;;28.05;59.90
55546;BME280;44768;50.298;127.520;2022-07-12T10:44:39;99001.00;;;28.23;59.71
55546;BME280;44768;50.298;127.520;2022-07-12T10:49:49;98976.03;;;28.23;58.90
55546;BME280;44768;50.298;127.520;2022-07-12T10:59:58;98984.38;;;28.26;59.18
55546;BME280;44768;50.298;127.520;2022-07-12T11:05:01;98980.75;;;28.08;59.95
55546;BME280;44768;50.298;127.520;2022-07-12T11:10:04;98990.56;;;27.95;60.52
55546;BME280;44768;50.298;127.520;2022-07-12T11:15:07;98983.41;;;27.94;59.83
55546;BME280;44768;50.298;127.520;2022-07-12T11:20:14;98973.91;;;27.95;59.60
55546;BME280;44768;50.298;127.520;2022-07-12T11:25:16;98978.28;;;27.96;59.66
55546;BME280;44768;50.298;127.520;2022-07-12T11:30:18;98968.63;;;27.75;59.64
55546;BME280;44768;50.298;127.520;2022-07-12T11:35:21;99022.88;;;27.76;60.55
55546;BME280;44768;50.298;127.520;2022-07-12T11:40:25;99030.22;;;27.51;60.93
55546;BME280;44768;50.298;127.520;2022-07-12T11:45:32;99052.00;;;27.52;60.71
55546;BME280;44768;50.298;127.520;2022-07-12T11:50:34;99054.69;;;27.42;60.77
55546;BME280;44768;50.298;127.520;2022-07-12T11:55:46;99070.19;;;27.50;61.21
55546;BME280;44768;50.298;127.520;2022-07-12T12:00:49;99076.41;;;27.40;60.68
55546;BME280;44768;50.298;127.520;2022-07-12T12:05:53;99081.22;;;27.43;60.98
55546;BME280;44768;50.298;127.520;2022-07-12T12:10:57;99071.91;;;27.24;61.34
55546;BME280;44768;50.298;127.520;2022-07-12T12:16:01;99079.09;;;27.29;61.27
55546;BME280;44768;50.298;127.520;2022-07-12T12:21:08;99055.06;;;27.03;61.43
55546;BME280;44768;50.298;127.520;2022-07-12T12:31:17;99085.97;;;27.09;62.18
55546;BME280;44768;50.298;127.520;2022-07-12T12:36:24;99083.22;;;27.09;62.28
55546;BME280;44768;50.298;127.520;2022-07-12T12:41:28;99063.19;;;26.89;62.32
55546;BME280;44768;50.298;127.520;2022-07-12T12:47:06;99090.41;;;27.17;62.70
55546;BME280;44768;50.298;127.520;2022-07-12T12:52:28;99093.72;;;26.96;62.70
55546;BME280;44768;50.298;127.520;2022-07-12T12:57:29;99091.66;;;26.86;63.08
55546;BME280;44768;50.298;127.520;2022-07-12T13:02:31;99089.91;;;26.74;63.03
55546;BME280;44768;50.298;127.520;2022-07-12T13:07:33;99081.91;;;26.65;63.11
55546;BME280;44768;50.298;127.520;2022-07-12T13:12:35;99097.81;;;26.72;63.48
55546;BME280;44768;50.298;127.520;2022-07-12T13:17:37;99105.41;;;26.79;63.44
55546;BME280;44768;50.298;127.520;2022-07-12T13:22:40;99106.16;;;26.76;63.03
55546;BME280;44768;50.298;127.520;2022-07-12T13:27:45;99107.13;;;26.60;63.04
55546;BME280;44768;50.298;127.520;2022-07-12T13:32:48;99079.00;;;26.28;63.74
55546;BME280;44768;50.298;127.520;2022-07-12T13:37:56;99111.41;;;26.28;64.21
55546;BME280;44768;50.298;127.520;2022-07-12T13:42:58;99125.72;;;26.33;63.99
55546;BME280;44768;50.298;127.520;2022-07-12T13:48:00;99116.88;;;26.24;64.10
55546;BME280;44768;50.298;127.520;2022-07-12T13:53:04;99116.09;;;26.24;64.22
55546;BME280;44768;50.298;127.520;2022-07-12T13:58:07;99092.69;;;26.18;64.24
55546;BME280;44768;50.298;127.520;2022-07-12T14:03:09;99092.69;;;26.18;64.19
55546;BME280;44768;50.298;127.520;2022-07-12T14:08:10;99096.81;;;26.31;63.65
55546;BME280;44768;50.298;127.520;2022-07-12T14:13:12;99055.75;;;26.06;63.87
55546;BME280;44768;50.298;127.520;2022-07-12T14:18:13;99076.41;;;26.13;64.13
55546;BME280;44768;50.298;127.520;2022-07-12T14:23:18;99072.25;;;25.99;63.81
55546;BME280;44768;50.298;127.520;2022-07-12T14:28:21;99087.47;;;26.13;63.97
55546;BME280;44768;50.298;127.520;2022-07-12T14:33:29;99088.00;;;26.22;63.56
55546;BME280;44768;50.298;127.520;2022-07-12T14:38:34;99102.47;;;26.12;63.27
55546;BME280;44768;50.298;127.520;2022-07-12T14:43:35;99098.63;;;26.20;63.26
55546;BME280;44768;50.298;127.520;2022-07-12T14:48:37;99093.81;;;26.13;62.75
55546;BME280;44768;50.298;127.520;2022-07-12T14:53:38;99057.81;;;25.87;62.82
55546;BME280;44768;50.298;127.520;2022-07-12T14:58:40;99083.31;;;25.99;62.95
55546;BME280;44768;50.298;127.520;2022-07-12T15:03:42;99082.50;;;25.99;63.50
55546;BME280;44768;50.298;127.520;2022-07-12T15:08:43;99081.34;;;25.77;63.56
55546;BME280;44768;50.298;127.520;2022-07-12T15:13:45;99059.63;;;25.53;64.20
55546;BME280;44768;50.298;127.520;2022-07-12T15:18:47;99075.91;;;25.58;64.33
55546;BME280;44768;50.298;127.520;2022-07-12T15:23:49;99068.41;;;25.58;63.75
55546;BME280;44768;50.298;127.520;2022-07-12T15:28:57;99055.88;;;25.64;63.95
55546;BME280;44768;50.298;127.520;2022-07-12T15:34:00;99072.44;;;25.64;63.79
55546;BME280;44768;50.298;127.520;2022-07-12T15:39:02;99066.44;;;25.59;63.70
55546;BME280;44768;50.298;127.520;2022-07-12T15:44:04;99063.63;;;25.55;63.58
55546;BME280;44768;50.298;127.520;2022-07-12T15:49:05;99031.34;;;25.17;64.22
55546;BME280;44768;50.298;127.520;2022-07-12T15:54:09;99063.97;;;25.31;64.00
55546;BME280;44768;50.298;127.520;2022-07-12T15:59:11;99070.59;;;25.26;64.17
55546;BME280;44768;50.298;127.520;2022-07-12T16:04:12;99081.63;;;25.26;64.08
55546;BME280;44768;50.298;127.520;2022-07-12T16:09:14;99071.28;;;25.23;64.15
55546;BME280;44768;50.298;127.520;2022-07-12T16:14:15;99081.84;;;25.17;64.65
55546;BME280;44768;50.298;127.520;2022-07-12T16:19:17;99084.13;;;25.12;64.85
55546;BME280;44768;50.298;127.520;2022-07-12T16:24:19;99070.63;;;25.07;64.61
55546;BME280;44768;50.298;127.520;2022-07-12T16:29:21;99068.13;;;25.02;64.66
55546;BME280;44768;50.298;127.520;2022-07-12T16:34:23;99090.69;;;25.04;64.52
55546;BME280;44768;50.298;127.520;2022-07-12T16:39:25;99069.53;;;24.92;64.94
55546;BME280;44768;50.298;127.520;2022-07-12T16:44:27;99075.56;;;24.78;65.04
55546;BME280;44768;50.298;127.520;2022-07-12T16:49:28;99079.91;;;24.79;65.36
55546;BME280;44768;50.298;127.520;2022-07-12T16:54:30;99075.72;;;24.85;65.07
55546;BME280;44768;50.298;127.520;2022-07-12T16:59:32;99073.09;;;24.73;64.96
55546;BME280;44768;50.298;127.520;2022-07-12T17:04:34;99080.94;;;24.71;65.27
55546;BME280;44768;50.298;127.520;2022-07-12T17:09:35;99090.28;;;24.67;64.64
55546;BME280;44768;50.298;127.520;2022-07-12T17:14:37;99078.72;;;24.42;64.61
55546;BME280;44768;50.298;127.520;2022-07-12T17:19:40;99079.28;;;24.32;65.06
55546;BME280;44768;50.298;127.520;2022-07-12T17:24:41;99082.75;;;24.28;65.37
55546;BME280;44768;50.298;127.520;2022-07-12T17:29:43;99067.94;;;24.17;65.38
55546;BME280;44768;50.298;127.520;2022-07-12T17:34:45;99060.50;;;24.02;65.67
55546;BME280;44768;50.298;127.520;2022-07-12T17:39:46;99058.25;;;24.08;65.88
55546;BME280;44768;50.298;127.520;2022-07-12T17:44:48;99069.09;;;24.16;65.87
55546;BME280;44768;50.298;127.520;2022-07-12T17:49:49;99064.72;;;24.15;65.75
55546;BME280;44768;50.298;127.520;2022-07-12T17:54:50;99078.34;;;24.08;66.25
55546;BME280;44768;50.298;127.520;2022-07-12T17:59:53;99089.28;;;24.20;65.62
55546;BME280;44768;50.298;127.520;2022-07-12T18:04:54;99081.63;;;24.14;65.70
55546;BME280;44768;50.298;127.520;2022-07-12T18:09:56;99081.44;;;24.22;65.30
55546;BME280;44768;50.298;127.520;2022-07-12T18:14:57;99085.06;;;24.26;65.25
55546;BME280;44768;50.298;127.520;2022-07-12T18:19:59;99073.47;;;24.17;65.17
55546;BME280;44768;50.298;127.520;2022-07-12T18:25:01;99074.81;;;24.08;65.38
55546;BME280;44768;50.298;127.520;2022-07-12T18:30:03;99093.47;;;23.98;65.72
55546;BME280;44768;50.298;127.520;2022-07-12T18:35:06;99086.25;;;23.94;65.63
55546;BME280;44768;50.298;127.520;2022-07-12T18:40:08;99087.75;;;23.91;65.57
55546;BME280;44768;50.298;127.520;2022-07-12T18:45:10;99090.56;;;23.76;65.59
55546;BME280;44768;50.298;127.520;2022-07-12T18:50:12;99087.44;;;23.77;65.16
55546;BME280;44768;50.298;127.520;2022-07-12T18:55:13;99103.41;;;23.72;65.54
55546;BME280;44768;50.298;127.520;2022-07-12T19:00:15;99102.88;;;23.50;65.98
55546;BME280;44768;50.298;127.520;2022-07-12T19:05:17;99116.81;;;23.42;66.40
55546;BME280;44768;50.298;127.520;2022-07-12T19:10:19;99097.38;;;23.34;66.61
55546;BME280;44768;50.298;127.520;2022-07-12T19:15:21;99101.63;;;23.32;66.72
55546;BME280;44768;50.298;127.520;2022-07-12T19:20:22;99093.63;;;23.43;66.33
55546;BME280;44768;50.298;127.520;2022-07-12T19:25:24;99079.16;;;23.30;65.98
55546;BME280;44768;50.298;127.520;2022-07-12T19:30:26;99113.56;;;23.52;65.88
55546;BME280;44768;50.298;127.520;2022-07-12T19:35:28;99122.44;;;23.61;65.85
55546;BME280;44768;50.298;127.520;2022-07-12T19:40:29;99128.75;;;23.61;65.67
55546;BME280;44768;50.298;127.520;2022-07-12T19:45:32;99129.91;;;23.60;65.13
55546;BME280;44768;50.298;127.520;2022-07-12T19:50:34;99124.66;;;23.55;64.97
55546;BME280;44768;50.298;127.520;2022-07-12T19:55:35;99131.44;;;23.74;64.84
55546;BME280;44768;50.298;127.520;2022-07-12T20:00:38;99132.56;;;23.88;64.36
55546;BME280;44768;50.298;127.520;2022-07-12T20:05:40;99145.16;;;24.17;63.86
55546;BME280;44768;50.298;127.520;2022-07-12T20:10:42;99144.38;;;24.36;63.12
55546;BME280;44768;50.298;127.520;2022-07-12T20:15:44;99142.31;;;24.49;62.41
55546;BME280;44768;50.298;127.520;2022-07-12T20:20:45;99142.03;;;24.54;62.20
55546;BME280;44768;50.298;127.520;2022-07-12T20:25:47;99133.72;;;24.35;62.20
55546;BME280;44768;50.298;127.520;2022-07-12T20:30:52;99128.84;;;24.28;61.94
55546;BME280;44768;50.298;127.520;2022-07-12T20:35:54;99133.63;;;24.31;61.99
55546;BME280;44768;50.298;127.520;2022-07-12T20:40:56;99138.34;;;24.66;61.19
55546;BME280;44768;50.298;127.520;2022-07-12T20:46:06;99119.28;;;24.96;59.82
55546;BME280;44768;50.298;127.520;2022-07-12T20:51:09;99142.66;;;25.60;58.60
55546;BME280;44768;50.298;127.520;2022-07-12T20:56:10;99136.16;;;25.94;57.19
55546;BME280;44768;50.298;127.520;2022-07-12T21:01:12;99137.03;;;26.51;55.48
55546;BME280;44768;50.298;127.520;2022-07-12T21:06:15;99137.53;;;26.57;55.13
55546;BME280;44768;50.298;127.520;2022-07-12T21:11:17;99131.50;;;27.11;53.99
55546;BME280;44768;50.298;127.520;2022-07-12T21:16:21;99122.47;;;27.51;52.91
55546;BME280;44768;50.298;127.520;2022-07-12T21:21:23;99128.47;;;27.57;52.44
55546;BME280;44768;50.298;127.520;2022-07-12T21:26:26;99109.09;;;27.23;53.32
55546;BME280;44768;50.298;127.520;2022-07-12T21:31:30;99120.84;;;27.47;53.18
55546;BME280;44768;50.298;127.520;2022-07-12T21:36:34;99119.28;;;27.49;52.78
55546;BME280;44768;50.298;127.520;2022-07-12T21:41:36;99118.56;;;27.56;52.83
55546;BME280;44768;50.298;127.520;2022-07-12T21:46:38;99112.59;;;27.95;51.83
55546;BME280;44768;50.298;127.520;2022-07-12T21:51:39;99125.41;;;28.10;51.83
55546;BME280;44768;50.298;127.520;2022-07-12T21:56:41;99116.72;;;28.18;52.00
55546;BME280;44768;50.298;127.520;2022-07-12T22:01:42;99109.72;;;28.35;51.27
55546;BME280;44768;50.298;127.520;2022-07-12T22:06:44;99102.06;;;28.87;50.91
55546;BME280;44768;50.298;127.520;2022-07-12T22:11:46;99108.66;;;29.98;48.74
55546;BME280;44768;50.298;127.520;2022-07-12T22:16:47;99099.94;;;30.17;47.93
55546;BME280;44768;50.298;127.520;2022-07-12T22:21:49;99092.78;;;30.23;48.03
55546;BME280;44768;50.298;127.520;2022-07-12T22:26:51;99088.88;;;32.23;44.33
55546;BME280;44768;50.298;127.520;2022-07-12T22:31:53;99087.09;;;34.12;40.06
55546;BME280;44768;50.298;127.520;2022-07-12T22:36:55;99086.13;;;35.41;37.68
55546;BME280;44768;50.298;127.520;2022-07-12T22:41:57;99075.53;;;36.72;35.49
55546;BME280;44768;50.298;127.520;2022-07-12T22:46:58;99083.13;;;36.87;34.37
55546;BME280;44768;50.298;127.520;2022-07-12T22:52:00;99078.28;;;36.88;34.87
55546;BME280;44768;50.298;127.520;2022-07-12T22:57:01;99072.81;;;35.78;36.45
55546;BME280;44768;50.298;127.520;2022-07-12T23:02:03;99079.22;;;35.78;36.36
55546;BME280;44768;50.298;127.520;2022-07-12T23:07:05;99078.91;;;35.24;37.70
55546;BME280;44768;50.298;127.520;2022-07-12T23:12:06;99074.69;;;34.13;39.74
55546;BME280;44768;50.298;127.520;2022-07-12T23:17:08;99061.97;;;32.43;42.88
55546;BME280;44768;50.298;127.520;2022-07-12T23:22:10;99068.41;;;31.43;45.22
55546;BME280;44768;50.298;127.520;2022-07-12T23:27:11;99071.47;;;31.60;45.59
55546;BME280;44768;50.298;127.520;2022-07-12T23:32:14;99074.72;;;32.44;43.95
55546;BME280;44768;50.298;127.520;2022-07-12T23:37:16;99068.03;;;32.68;43.34
55546;BME280;44768;50.298;127.520;2022-07-12T23:42:17;99060.09;;;33.55;41.84
55546;BME280;44768;50.298;127.520;2022-07-12T23:47:19;99049.28;;;34.87;39.53
55546;BME280;44768;50.298;127.520;2022-07-12T23:52:20;99050.31;;;36.26;37.22
55546;BME280;44768;50.298;127.520;2022-07-12T23:57:23;99047.38;;;36.30;37.17
